Time;durP1;ratioP1;P1;durP2;ratioP2;P2;SDS_P1;SDS_P2;PMS_P1;PMS_P2;Temp;Humidity;BMP_temperature;BMP_pressure;BME280_temperature;BME280_humidity;BME280_pressure;Samples;Min_cycle;Max_cycle;Signal;HPM_P1;HPM_P2
2022/11/05 00:10:50;;;;;;;45.90;25.30;;;;;;;16.35;100.00;-18210.16;5072238;28;20763;-69
2022/11/05 00:19:06;;;;;;;44.63;23.93;;;;;;;16.97;100.00;-18224.78;5070282;28;20608;-64
2022/11/05 00:27:04;;;;;;;40.33;25.47;;;;;;;16.74;100.00;-18219.28;5072238;28;20180;-69
2022/11/05 00:29:33;;;;;;;40.93;26.00;;;;;;;16.81;100.00;-18221.06;5071880;28;20204;-64
2022/11/05 00:32:02;;;;;;;42.23;26.77;;;;;;;16.84;100.00;-18221.78;5071242;28;20318;-64
2022/11/05 00:34:29;;;;;;;43.00;26.47;;;;;;;16.49;100.00;-18213.41;5071455;28;20607;-63
2022/11/05 00:36:56;;;;;;;54.83;27.03;;;;;;;16.82;100.00;-18221.31;5071473;28;20196;-63
2022/11/05 00:39:25;;;;;;;50.77;26.10;;;;;;;16.62;100.00;-18216.53;5071941;28;20612;-69
2022/11/05 00:50:03;;;;;;;41.27;27.30;;;;;;;16.99;100.00;-18225.16;5071456;28;20223;-64
2022/11/05 00:55:17;;;;;;;43.87;24.93;;;;;;;16.80;100.00;-18220.72;5071806;28;20176;-69
2022/11/05 00:57:44;;;;;;;37.07;23.80;;;;;;;16.77;100.00;-18220.00;5071581;28;20200;-64
2022/11/05 01:00:18;;;;;;;40.43;23.77;;;;;;;16.84;100.00;-18221.78;5072102;28;20209;-69
2022/11/05 01:02:45;;;;;;;31.23;24.07;;;;;;;16.89;100.00;-18223.00;5072258;28;20204;-68
2022/11/05 01:05:12;;;;;;;38.07;23.63;;;;;;;17.07;100.00;-18227.06;5071577;28;20692;-63
2022/11/05 01:07:39;;;;;;;42.07;26.17;;;;;;;17.09;100.00;-18227.53;5071524;28;20195;-63
2022/11/05 01:10:09;;;;;;;46.90;27.23;;;;;;;17.06;100.00;-18226.94;5071267;28;20217;-69
2022/11/05 01:12:36;;;;;;;46.43;26.90;;;;;;;17.16;100.00;-18229.22;5070086;28;20659;-69
2022/11/05 01:15:04;;;;;;;41.10;26.23;;;;;;;17.19;100.00;-18229.94;5071710;28;20292;-69
2022/11/05 01:17:34;;;;;;;49.13;28.27;;;;;;;17.14;100.00;-18228.84;5071722;28;20201;-69
2022/11/05 01:20:01;;;;;;;42.33;27.53;;;;;;;17.08;100.00;-18227.44;5071395;28;20231;-64
2022/11/05 01:22:27;;;;;;;45.37;27.43;;;;;;;17.12;100.00;-18228.25;5071289;28;20562;-63
2022/11/05 01:24:54;;;;;;;46.83;27.30;;;;;;;17.16;100.00;-18229.22;5071619;28;20203;-64
2022/11/05 01:27:22;;;;;;;43.53;27.57;;;;;;;17.05;100.00;-18226.72;5071425;28;20188;-64
2022/11/05 01:29:49;;;;;;;47.20;27.40;;;;;;;17.14;100.00;-18228.75;5071161;28;20205;-65
2022/11/05 01:32:16;;;;;;;53.90;27.97;;;;;;;17.01;100.00;-18225.63;5070720;28;20775;-64
2022/11/05 01:34:44;;;;;;;52.60;27.30;;;;;;;16.92;100.00;-18223.59;5071166;28;20567;-63
2022/11/05 01:37:13;;;;;;;51.67;28.43;;;;;;;16.82;100.00;-18221.19;5075101;28;20196;-67
2022/11/05 01:39:40;;;;;;;45.60;28.87;;;;;;;16.61;100.00;-18216.28;5074623;28;20201;-70
2022/11/05 01:42:14;;;;;;;51.07;29.23;;;;;;;16.56;100.00;-18215.06;5074792;28;20185;-66
2022/11/05 01:45:04;;;;;;;46.80;30.03;;;;;;;16.67;100.00;-18217.59;5074238;28;20191;-63
2022/11/05 01:47:39;;;;;;;51.03;30.40;;;;;;;16.68;100.00;-18217.84;5070856;28;20648;-64
2022/11/05 01:50:24;;;;;;;52.50;30.10;;;;;;;16.82;100.00;-18221.31;5074496;28;20200;-63
2022/11/05 01:52:56;;;;;;;51.70;31.23;;;;;;;16.82;100.00;-18221.31;5074217;28;20189;-63
2022/11/05 01:55:30;;;;;;;54.97;29.70;;;;;;;16.84;100.00;-18221.78;5074479;28;20193;-69
2022/11/05 01:58:00;;;;;;;53.90;31.17;;;;;;;16.85;100.00;-18221.91;5075385;28;20716;-69
2022/11/05 02:00:27;;;;;;;49.17;30.77;;;;;;;16.46;100.00;-18212.69;5074102;28;20185;-64
2022/11/05 02:02:54;;;;;;;51.17;29.97;;;;;;;16.77;100.00;-18220.00;5056279;28;20185;-65
2022/11/05 02:05:23;;;;;;;49.43;29.40;;;;;;;16.83;100.00;-18221.56;5074172;28;20185;-64
2022/11/05 02:07:51;;;;;;;45.90;30.03;;;;;;;16.73;100.00;-18219.03;5074486;28;20192;-63
2022/11/05 02:10:21;;;;;;;52.87;31.37;;;;;;;16.69;100.00;-18218.19;5056376;28;20204;-68
2022/11/05 02:12:50;;;;;;;57.17;31.77;;;;;;;16.57;100.00;-18215.19;5074462;28;20640;-69
2022/11/05 02:15:25;;;;;;;56.23;31.10;;;;;;;16.09;100.00;-18203.81;5074818;28;20294;-69
2022/11/05 02:18:06;;;;;;;55.33;31.30;;;;;;;16.80;100.00;-18220.72;5074253;28;20227;-71
2022/11/05 02:20:42;;;;;;;55.13;30.13;;;;;;;16.82;100.00;-18221.31;5073694;28;20625;-64
2022/11/05 02:23:48;;;;;;;53.43;30.43;;;;;;;16.71;100.00;-18218.69;5073919;28;20200;-64
2022/11/05 02:26:51;;;;;;;55.30;30.27;;;;;;;16.66;100.00;-18217.47;5073969;28;20189;-66
2022/11/05 02:30:03;;;;;;;60.90;31.43;;;;;;;16.57;100.00;-18215.19;5073899;28;20185;-63
2022/11/05 02:32:54;;;;;;;54.17;30.43;;;;;;;16.64;100.00;-18217.00;5057391;28;20233;-64
2022/11/05 02:35:38;;;;;;;52.00;29.77;;;;;;;16.49;100.00;-18213.41;5049433;28;20201;-69
2022/11/05 02:38:09;;;;;;;56.70;30.90;;;;;;;16.45;100.00;-18212.44;5053734;28;20209;-64
2022/11/05 02:40:52;;;;;;;50.10;29.53;;;;;;;16.46;100.00;-18212.69;5053402;28;20189;-70
2022/11/05 02:43:37;;;;;;;54.87;31.70;;;;;;;16.36;100.00;-18210.41;5053893;28;20182;-68
2022/11/05 02:46:15;;;;;;;50.23;31.17;;;;;;;16.55;100.00;-18214.84;5053450;28;20648;-65
2022/11/05 02:48:50;;;;;;;59.80;31.97;;;;;;;16.48;100.00;-18213.16;5052921;28;20576;-64
2022/11/05 02:51:27;;;;;;;56.20;32.63;;;;;;;16.22;100.00;-18207.03;5053100;28;20205;-64
2022/11/05 02:54:02;;;;;;;52.27;33.73;;;;;;;16.49;100.00;-18213.41;5053299;28;20667;-64
2022/11/05 02:56:40;;;;;;;59.63;33.83;;;;;;;16.38;100.00;-18210.75;5053475;28;20551;-69
2022/11/05 02:59:07;;;;;;;56.93;31.83;;;;;;;16.32;100.00;-18209.44;5053367;28;20652;-63
2022/11/05 03:01:35;;;;;;;53.23;34.47;;;;;;;16.28;100.00;-18208.50;5052919;28;20552;-64
2022/11/05 03:04:09;;;;;;;58.60;33.97;;;;;;;16.34;100.00;-18209.94;5053177;28;20193;-67
2022/11/05 03:06:51;;;;;;;62.87;34.20;;;;;;;16.09;100.00;-18203.81;5052905;28;20733;-64
2022/11/05 03:09:57;;;;;;;64.87;34.83;;;;;;;16.44;100.00;-18212.19;5052617;28;20196;-64
2022/11/05 03:12:33;;;;;;;53.27;33.50;;;;;;;16.37;100.00;-18210.66;5050517;28;20662;-69
2022/11/05 03:15:10;;;;;;;59.80;34.33;;;;;;;16.47;100.00;-18212.91;5053101;28;20235;-68
2022/11/05 03:17:44;;;;;;;57.40;35.30;;;;;;;16.46;100.00;-18212.69;5053094;28;20188;-69
2022/11/05 03:20:23;;;;;;;63.73;36.47;;;;;;;16.50;100.00;-18213.53;5044974;28;20244;-69
2022/11/05 03:22:56;;;;;;;63.13;33.90;;;;;;;16.43;100.00;-18212.09;5053062;28;20205;-64
2022/11/05 03:25:25;;;;;;;59.07;35.70;;;;;;;16.39;100.00;-18211.00;5052451;28;20200;-64
2022/11/05 03:28:00;;;;;;;64.60;35.27;;;;;;;16.35;100.00;-18210.16;5052650;28;20216;-69
2022/11/05 03:30:33;;;;;;;62.83;36.03;;;;;;;16.30;100.00;-18208.84;5052636;28;20295;-68
2022/11/05 03:33:07;;;;;;;63.60;36.23;;;;;;;16.27;100.00;-18208.13;5072750;28;20185;-67
2022/11/05 03:35:40;;;;;;;64.23;36.67;;;;;;;16.54;100.00;-18214.47;5072909;28;20242;-70
2022/11/05 03:38:12;;;;;;;58.97;35.30;;;;;;;16.34;100.00;-18209.94;5072384;28;20220;-64
2022/11/05 03:40:42;;;;;;;62.30;34.43;;;;;;;16.59;100.00;-18215.81;5071934;28;20189;-64
2022/11/05 03:43:09;;;;;;;65.67;35.57;;;;;;;16.52;100.00;-18214.00;5071971;28;20185;-64
2022/11/05 03:45:40;;;;;;;65.73;36.30;;;;;;;16.45;100.00;-18212.56;5072065;28;20322;-62
2022/11/05 03:48:11;;;;;;;58.33;34.53;;;;;;;16.38;100.00;-18210.88;5072901;28;20208;-68
2022/11/05 03:50:45;;;;;;;63.60;35.90;;;;;;;16.43;100.00;-18211.97;5072629;28;20200;-68
2022/11/05 03:53:16;;;;;;;50.13;34.53;;;;;;;16.22;100.00;-18206.94;5072101;28;20622;-64
2022/11/05 03:55:52;;;;;;;69.60;35.17;;;;;;;16.24;100.00;-18207.41;5071988;28;20191;-68
2022/11/05 03:58:21;;;;;;;64.60;33.67;;;;;;;16.36;100.00;-18210.41;5072026;28;20191;-67
2022/11/05 04:00:48;;;;;;;57.73;34.80;;;;;;;16.08;100.00;-18203.56;5072090;28;20198;-64
2022/11/05 04:03:15;;;;;;;62.53;36.17;;;;;;;16.16;100.00;-18205.63;5072142;28;20185;-63
2022/11/05 04:13:22;;;;;;;65.80;35.97;;;;;;;16.22;100.00;-18206.94;5072471;28;20688;-69
2022/11/05 04:14:04;;;;;;;72.07;37.33;;;;;;;15.99;100.00;-18201.66;5072161;28;20207;-66
2022/11/05 04:24:07;;;;;;;63.10;36.83;;;;;;;16.25;100.00;-18207.66;5072066;28;20740;-64
2022/11/05 04:24:52;;;;;;;62.40;35.33;;;;;;;15.96;100.00;-18200.94;5057116;28;20704;-69
2022/11/05 04:27:19;;;;;;;63.87;36.03;;;;;;;15.97;100.00;-18201.06;5071935;28;20666;-68
2022/11/05 04:32:39;;;;;;;58.70;35.30;;;;;;;16.03;100.00;-18202.38;5035890;28;20712;-63
2022/11/05 04:35:07;;;;;;;64.00;35.50;;;;;;;16.02;100.00;-18202.13;5051783;28;20196;-69
2022/11/05 04:37:37;;;;;;;63.87;35.13;;;;;;;15.91;100.00;-18199.72;5051776;28;20563;-69
2022/11/05 04:40:05;;;;;;;65.63;33.67;;;;;;;16.04;100.00;-18202.63;5052078;28;20207;-68
2022/11/05 04:42:40;;;;;;;51.13;34.80;;;;;;;15.76;100.00;-18196.13;5052145;28;20203;-69
2022/11/05 04:45:08;;;;;;;67.70;39.23;;;;;;;15.87;100.00;-18198.66;5051893;28;20193;-65
2022/11/05 04:47:36;;;;;;;66.77;40.20;;;;;;;15.86;100.00;-18198.53;5052023;28;20296;-64
2022/11/05 04:50:03;;;;;;;73.93;39.60;;;;;;;16.06;100.00;-18203.09;5051756;28;20190;-64
2022/11/05 04:52:31;;;;;;;72.53;40.87;;;;;;;16.02;100.00;-18202.13;5051729;28;20205;-69
2022/11/05 04:55:00;;;;;;;82.33;40.63;;;;;;;15.87;100.00;-18198.78;5052022;28;20204;-64
2022/11/05 04:57:30;;;;;;;67.57;36.77;;;;;;;15.67;100.00;-18193.97;5052229;28;20636;-69
2022/11/05 04:59:58;;;;;;;66.63;37.70;;;;;;;15.53;100.00;-18190.63;5051580;28;20255;-71
2022/11/05 05:02:26;;;;;;;79.60;42.17;;;;;;;15.75;100.00;-18195.91;5052006;28;20194;-66
2022/11/05 05:04:55;;;;;;;66.17;37.77;;;;;;;15.88;100.00;-18199.00;5051560;28;20584;-70
2022/11/05 05:07:27;;;;;;;67.53;37.07;;;;;;;15.41;100.00;-18187.84;5051780;28;20194;-67
2022/11/05 05:09:54;;;;;;;70.83;37.97;;;;;;;15.40;100.00;-18187.59;5051629;28;20185;-64
2022/11/05 05:12:22;;;;;;;59.67;36.67;;;;;;;15.61;100.00;-18192.53;5055406;28;20205;-63
2022/11/05 05:14:49;;;;;;;63.93;35.87;;;;;;;15.62;100.00;-18192.66;5055046;28;20276;-63
2022/11/05 05:17:17;;;;;;;63.37;35.60;;;;;;;15.59;100.00;-18191.94;5054779;28;20189;-64
2022/11/05 05:22:35;;;;;;;67.70;36.17;;;;;;;15.47;100.00;-18189.28;5055251;28;20239;-70
2022/11/05 05:25:02;;;;;;;56.27;35.07;;;;;;;15.74;100.00;-18195.53;5055574;28;20224;-69
2022/11/05 05:27:31;;;;;;;68.50;37.30;;;;;;;15.76;100.00;-18196.13;5055025;28;20186;-64
2022/11/05 05:29:59;;;;;;;64.77;38.40;;;;;;;15.77;100.00;-18196.38;5054999;28;20185;-64
2022/11/05 05:32:28;;;;;;;59.90;36.43;;;;;;;15.67;100.00;-18193.97;5054369;28;20241;-69
2022/11/05 05:34:56;;;;;;;62.13;37.60;;;;;;;15.63;100.00;-18192.91;5054969;28;20213;-67
2022/11/05 05:37:25;;;;;;;76.83;39.07;;;;;;;15.62;100.00;-18192.78;5055119;28;20263;-69
2022/11/05 05:39:53;;;;;;;61.20;37.53;;;;;;;15.97;100.00;-18201.06;5037160;28;20280;-64
2022/11/05 05:42:21;;;;;;;75.73;39.00;;;;;;;16.07;100.00;-18203.44;5054728;28;20189;-63
2022/11/05 05:44:49;;;;;;;68.40;39.17;;;;;;;16.18;100.00;-18205.97;5054295;28;20185;-64
2022/11/05 05:47:18;;;;;;;74.23;39.80;;;;;;;16.11;100.00;-18204.28;5054950;28;20292;-68
2022/11/05 05:49:47;;;;;;;69.93;38.73;;;;;;;15.87;100.00;-18198.78;5055348;28;20186;-68
2022/11/05 05:52:15;;;;;;;74.83;40.33;;;;;;;15.83;100.00;-18197.81;5054240;28;20225;-68
2022/11/05 05:54:41;;;;;;;80.93;38.57;;;;;;;16.03;100.00;-18202.50;5054652;28;20181;-65
2022/11/05 05:57:08;;;;;;;67.03;37.47;;;;;;;16.17;100.00;-18205.72;5054215;28;20186;-64
2022/11/05 05:59:35;;;;;;;72.57;38.33;;;;;;;16.23;100.00;-18207.28;5036819;28;20609;-64
2022/11/05 06:02:04;;;;;;;87.83;42.93;;;;;;;16.22;100.00;-18206.94;5054202;28;20182;-64
2022/11/05 06:04:31;;;;;;;81.90;39.70;;;;;;;16.28;100.00;-18208.50;5054000;28;20185;-63
2022/11/05 06:07:00;;;;;;;86.00;40.20;;;;;;;16.20;100.00;-18206.44;5055049;28;20185;-69
2022/11/05 06:09:30;;;;;;;84.30;39.83;;;;;;;16.30;100.00;-18208.97;5054435;28;20687;-67
2022/11/05 06:11:57;;;;;;;89.47;40.83;;;;;;;16.41;100.00;-18211.47;5053624;28;20248;-64
2022/11/05 06:14:24;;;;;;;75.33;41.07;;;;;;;16.40;100.00;-18211.25;5053591;28;20193;-64
2022/11/05 06:16:51;;;;;;;70.40;40.80;;;;;;;16.37;100.00;-18210.66;5053842;28;20579;-65
2022/11/05 06:19:21;;;;;;;64.07;39.63;;;;;;;16.25;100.00;-18207.75;5053795;28;20189;-70
2022/11/05 06:21:51;;;;;;;70.53;39.87;;;;;;;16.37;100.00;-18210.53;5053830;28;20273;-69
2022/11/05 06:24:18;;;;;;;64.43;39.83;;;;;;;16.39;100.00;-18211.00;5054158;28;20244;-64
2022/11/05 06:26:45;;;;;;;68.33;40.83;;;;;;;16.41;100.00;-18211.47;5053941;28;20193;-64
2022/11/05 06:29:11;;;;;;;64.67;39.83;;;;;;;16.53;100.00;-18214.38;5053743;28;20510;-64
2022/11/05 06:31:39;;;;;;;63.13;39.47;;;;;;;16.57;100.00;-18215.31;5062590;28;20229;-64
2022/11/05 06:34:06;;;;;;;73.80;40.60;;;;;;;16.69;100.00;-18218.19;5056088;28;20247;-66
2022/11/05 06:36:35;;;;;;;84.27;40.00;;;;;;;16.85;100.00;-18222.03;5073933;28;20189;-69
2022/11/05 06:39:04;;;;;;;85.80;39.57;;;;;;;17.26;100.00;-18231.63;5073901;28;20644;-63
2022/11/05 06:41:31;;;;;;;72.77;39.77;;;;;;;17.51;100.00;-18237.47;5073327;28;20192;-65
2022/11/05 06:43:58;;;;;;;77.67;40.33;;;;;;;17.78;100.00;-14382.56;5073177;28;20199;-64
2022/11/05 06:46:25;;;;;;;79.30;39.23;;;;;;;18.17;100.00;-9233.09;5073527;28;20207;-65
2022/11/05 06:48:52;;;;;;;72.03;39.47;;;;;;;18.61;100.00;-4069.00;5073316;28;20185;-64
2022/11/05 06:51:22;;;;;;;73.37;37.73;;;;;;;19.00;100.00;8894.81;5073366;28;20208;-68
2022/11/05 06:53:55;;;;;;;67.20;36.97;;;;;;;19.13;100.00;27137.34;5073960;28;20284;-69
2022/11/05 06:56:22;;;;;;;70.53;38.73;;;;;;;19.70;100.00;32399.41;5073351;28;20207;-64
2022/11/05 06:58:49;;;;;;;64.73;36.87;;;;;;;20.16;100.00;60393.31;5073422;28;20185;-65
2022/11/05 07:01:18;;;;;;;67.73;36.57;;;;;;;20.34;100.00;85954.13;5073520;28;20188;-70
2022/11/05 07:03:49;;;;;;;62.97;34.38;;;;;;;20.91;100.00;129633.72;5073340;28;20216;-70
2022/11/05 07:06:16;;;;;;;58.42;33.53;;;;;;;20.44;100.00;151176.84;5073287;28;20200;-64
2022/11/05 07:08:44;;;;;;;78.75;36.15;;;;;;;21.17;100.00;151360.34;5073119;28;20185;-68
2022/11/05 07:11:12;;;;;;;64.78;34.60;;;;;;;21.76;100.00;151508.16;5073423;28;20196;-69
2022/11/05 07:13:39;;;;;;;56.85;33.65;;;;;;;21.96;100.00;151559.19;5072587;28;20196;-64
2022/11/05 07:16:07;;;;;;;77.97;34.70;;;;;;;22.11;100.00;151597.41;5073530;28;20651;-69
2022/11/05 07:18:39;;;;;;;58.92;32.95;;;;;;;22.05;100.00;151580.84;5073417;28;20181;-69
2022/11/05 07:21:06;;;;;;;61.58;34.55;;;;;;;22.76;100.00;151760.69;5072723;28;20191;-65
2022/11/05 07:23:33;;;;;;;45.65;31.65;;;;;;;22.56;100.00;151709.66;5072611;28;20185;-64
2022/11/05 07:26:03;;;;;;;49.80;32.70;;;;;;;23.11;100.00;151850.00;5072470;28;20188;-67
2022/11/05 07:28:32;;;;;;;54.03;32.65;;;;;;;23.48;100.00;151941.91;5072724;28;20188;-69
2022/11/05 07:31:03;;;;;;;54.40;33.50;;;;;;;23.30;100.00;151895.97;5072588;28;20327;-69
2022/11/05 07:33:30;;;;;;;49.92;31.63;;;;;;;22.64;100.00;151730.06;5072287;28;20224;-70
2022/11/05 07:35:57;;;;;;;39.30;30.90;;;;;;;22.62;100.00;151724.94;5072188;28;20238;-64
2022/11/05 07:38:25;;;;;;;49.92;32.10;;;;;;;22.07;100.00;151585.94;5072458;28;20585;-64
2022/11/05 07:40:53;;;;;;;48.90;31.85;;;;;;;22.49;100.00;151693.03;5072881;28;20594;-68
2022/11/05 07:43:21;;;;;;;48.53;30.85;;;;;;;23.20;100.00;151873.00;5072105;28;20203;-64
2022/11/05 07:45:52;;;;;;;43.38;30.17;;;;;;;24.06;100.00;152089.97;5072713;28;20193;-70
2022/11/05 07:48:19;;;;;;;56.42;31.83;;;;;;;24.88;100.00;152295.66;5072975;28;20208;-70
2022/11/05 07:50:46;;;;;;;58.67;33.67;;;;;;;25.75;100.00;152516.78;5072187;28;20254;-65
2022/11/05 07:53:14;;;;;;;34.40;28.65;;;;;;;25.98;100.00;152574.28;5071865;28;20206;-65
2022/11/05 07:55:46;;;;;;;37.55;29.17;;;;;;;26.42;100.00;152684.28;5072922;28;20185;-69
2022/11/05 07:58:14;;;;;;;39.28;27.38;;;;;;;26.57;100.00;152723.91;5072530;28;20224;-69
2022/11/05 08:00:43;;;;;;;35.78;27.88;;;;;;;26.94;100.00;152817.34;5072863;28;20291;-69
2022/11/05 08:03:15;;;;;;;41.53;27.70;;;;;;;26.90;100.00;152805.81;5072783;28;20664;-70
2022/11/05 08:05:44;;;;;;;40.92;29.10;;;;;;;26.91;100.00;152808.34;5072576;28;20192;-63
2022/11/05 08:08:13;;;;;;;40.45;27.58;;;;;;;26.46;100.00;152694.50;5063738;28;20185;-65
2022/11/05 08:10:40;;;;;;;42.35;27.90;;;;;;;27.14;100.00;152867.22;5072106;28;20207;-64
2022/11/05 08:13:08;;;;;;;42.50;29.17;;;;;;;27.46;99.29;152949.06;5054155;28;20643;-64
2022/11/05 08:15:36;;;;;;;38.55;28.95;;;;;;;27.84;97.09;153045.09;5072083;28;20191;-69
2022/11/05 08:18:07;;;;;;;40.05;29.45;;;;;;;27.56;98.40;152974.72;5071963;28;20196;-69
2022/11/05 08:20:37;;;;;;;45.10;28.25;;;;;;;28.01;94.13;153087.31;5071945;28;20236;-69
2022/11/05 08:23:04;;;;;;;39.67;29.10;;;;;;;27.98;93.94;153079.66;5072007;28;20192;-69
2022/11/05 08:25:31;;;;;;;47.97;29.27;;;;;;;28.38;95.80;153182.13;5072180;28;20200;-69
2022/11/05 08:28:00;;;;;;;38.47;28.85;;;;;;;27.52;96.33;152964.50;5072521;28;20664;-70
2022/11/05 08:30:35;;;;;;;32.35;28.42;;;;;;;27.30;98.94;152908.13;5071959;28;20189;-69
2022/11/05 08:33:04;;;;;;;37.60;27.48;;;;;;;28.48;93.33;153207.69;5072042;28;20236;-65
2022/11/05 08:35:31;;;;;;;36.92;26.98;;;;;;;29.26;87.99;153404.97;5071624;28;20185;-64
2022/11/05 08:38:01;;;;;;;42.35;27.85;;;;;;;29.54;85.10;153474.16;5071793;28;20185;-63
2022/11/05 08:40:30;;;;;;;33.28;26.52;;;;;;;29.62;81.48;153494.72;5071702;28;20591;-64
2022/11/05 08:42:57;;;;;;;35.13;26.73;;;;;;;29.97;79.37;153583.13;5071588;28;20199;-64
2022/11/05 08:45:24;;;;;;;34.83;27.33;;;;;;;29.79;76.49;153538.28;5074160;28;20176;-64
2022/11/05 08:47:51;;;;;;;31.73;25.35;;;;;;;29.25;78.05;153402.41;5076080;28;20201;-64
2022/11/05 08:50:18;;;;;;;31.17;25.23;;;;;;;28.36;83.97;153175.69;5075451;28;20189;-64
2022/11/05 08:52:45;;;;;;;34.97;24.52;;;;;;;28.51;83.25;153215.41;5075295;28;20218;-64
2022/11/05 08:55:17;;;;;;;36.25;25.90;;;;;;;29.45;80.08;153452.44;5067794;28;20188;-64
2022/11/05 08:57:44;;;;;;;40.85;26.30;;;;;;;29.87;75.26;153560.06;5075640;28;20694;-63
2022/11/05 09:00:12;;;;;;;29.88;22.42;;;;;;;29.96;71.98;153580.59;5075575;28;20653;-64
2022/11/05 09:02:39;;;;;;;30.35;23.52;;;;;;;30.24;70.40;153653.63;5075491;28;20194;-64
2022/11/05 09:05:07;;;;;;;30.88;24.85;;;;;;;30.34;69.98;153679.25;5074960;28;20185;-64
2022/11/05 09:07:34;;;;;;;33.50;24.77;;;;;;;30.50;68.82;153717.78;5075560;28;20632;-64
2022/11/05 09:10:02;;;;;;;32.85;24.60;;;;;;;29.67;71.31;153508.75;5075314;28;20251;-65
2022/11/05 09:12:30;;;;;;;30.23;24.48;;;;;;;30.02;70.34;153597.25;5075345;28;20606;-65
2022/11/05 09:14:58;;;;;;;30.48;24.63;;;;;;;30.02;70.00;153597.25;5074909;28;20185;-65
2022/11/05 09:17:27;;;;;;;31.63;25.20;;;;;;;29.38;73.24;153435.75;5075288;28;20663;-65
2022/11/05 09:19:56;;;;;;;29.40;25.02;;;;;;;28.48;79.07;153206.41;5057283;28;20545;-65
2022/11/05 09:22:24;;;;;;;28.55;24.05;;;;;;;28.49;78.89;153210.25;5075186;28;20246;-66
2022/11/05 09:24:52;;;;;;;31.95;24.63;;;;;;;29.19;75.33;153387.06;5074560;28;20279;-64
2022/11/05 09:27:18;;;;;;;35.75;23.10;;;;;;;28.31;79.81;153162.88;5075202;28;20242;-64
2022/11/05 09:29:48;;;;;;;27.73;24.80;;;;;;;28.13;81.70;153119.34;5057563;28;20555;-66
2022/11/05 09:32:18;;;;;;;27.05;23.80;;;;;;;28.53;81.51;153219.22;5074854;28;20622;-66
2022/11/05 09:34:48;;;;;;;29.48;24.95;;;;;;;28.73;80.29;153269.25;5074909;28;20200;-65
2022/11/05 09:37:20;;;;;;;31.08;24.00;;;;;;;28.57;80.18;153230.75;5067216;28;20188;-64
2022/11/05 09:39:47;;;;;;;38.45;25.75;;;;;;;28.96;81.05;153328.13;5074665;28;20279;-64
2022/11/05 09:42:19;;;;;;;34.42;25.85;;;;;;;28.99;81.24;153335.78;5074972;28;20551;-69
2022/11/05 09:44:52;;;;;;;29.60;26.10;;;;;;;28.54;82.82;153221.78;5075001;28;20191;-68
2022/11/05 09:47:23;;;;;;;30.88;24.70;;;;;;;27.68;85.71;153005.44;5075309;28;20275;-70
2022/11/05 09:49:52;;;;;;;28.90;25.90;;;;;;;27.19;93.74;152880.00;5075111;28;20283;-69
2022/11/05 09:52:23;;;;;;;36.85;26.27;;;;;;;25.35;100.00;152415.75;5074494;28;20291;-69
2022/11/05 09:54:54;;;;;;;31.00;26.88;;;;;;;25.14;100.00;152360.81;5074682;28;20562;-70
2022/11/05 09:57:27;;;;;;;35.80;26.15;;;;;;;25.17;100.00;152368.47;5074024;28;20188;-69
2022/11/05 09:59:59;;;;;;;32.40;27.77;;;;;;;25.23;100.00;152383.81;5074841;28;20653;-71
2022/11/05 10:02:33;;;;;;;35.15;26.73;;;;;;;24.72;100.00;152256.03;5074881;28;20650;-69
2022/11/05 10:05:06;;;;;;;29.00;25.95;;;;;;;25.37;100.00;152419.63;5074760;28;20184;-71
2022/11/05 10:07:42;;;;;;;31.08;26.85;;;;;;;25.17;100.00;152368.47;5074304;28;20501;-63
2022/11/05 10:10:28;;;;;;;44.60;27.17;;;;;;;25.31;100.00;152404.25;5074245;28;20195;-64
2022/11/05 10:13:01;;;;;;;35.70;26.30;;;;;;;25.71;100.00;152506.56;5074374;28;20204;-68
2022/11/05 10:15:33;;;;;;;39.17;26.05;;;;;;;24.20;100.00;152124.50;5074094;28;20234;-64
2022/11/05 10:18:07;;;;;;;31.17;25.30;;;;;;;24.99;100.00;152325.03;5074059;28;20203;-67
2022/11/05 10:20:37;;;;;;;31.13;24.65;;;;;;;24.83;100.00;152282.84;5057230;28;20260;-63
2022/11/05 10:23:11;;;;;;;31.63;24.42;;;;;;;24.39;100.00;152171.75;5073718;28;20192;-63
2022/11/05 10:25:41;;;;;;;32.47;24.38;;;;;;;25.14;100.00;152360.81;5055810;28;20188;-63
2022/11/05 10:28:10;;;;;;;28.17;23.33;;;;;;;25.52;100.00;152457.94;5073885;28;20599;-63
2022/11/05 10:30:39;;;;;;;41.72;24.33;;;;;;;25.84;100.00;152539.75;5073719;28;20580;-63
2022/11/05 10:33:08;;;;;;;26.83;22.77;;;;;;;25.72;100.00;152509.09;5073424;28;20215;-64
2022/11/05 10:35:46;;;;;;;33.28;23.50;;;;;;;25.98;100.00;152574.28;5073757;28;20199;-64
2022/11/05 10:38:14;;;;;;;31.35;23.15;;;;;;;26.24;99.23;152640.81;5073402;28;20192;-63
2022/11/05 10:40:52;;;;;;;28.67;23.17;;;;;;;26.35;96.31;152668.91;5073259;28;20188;-62
2022/11/05 10:43:25;;;;;;;30.13;22.90;;;;;;;24.70;100.00;152250.91;5073406;28;20268;-62
2022/11/05 10:46:05;;;;;;;31.55;22.13;;;;;;;24.20;100.00;152123.22;5073522;28;20192;-64
2022/11/05 10:48:46;;;;;;;34.92;23.40;;;;;;;24.60;100.00;152225.38;5073208;28;20284;-66
2022/11/05 10:51:14;;;;;;;33.50;21.27;;;;;;;24.48;100.00;152194.75;5073751;28;20189;-63
2022/11/05 10:53:50;;;;;;;24.83;22.23;;;;;;;24.46;100.00;152190.91;5073544;28;20667;-62
2022/11/05 10:56:33;;;;;;;33.53;22.90;;;;;;;25.10;100.00;152350.59;5073216;28;20188;-65
2022/11/05 10:59:04;;;;;;;30.02;23.25;;;;;;;24.38;100.00;152169.19;5073062;28;20206;-66
2022/11/05 11:01:36;;;;;;;28.15;23.15;;;;;;;24.30;100.00;152148.75;5073637;28;20276;-66
2022/11/05 11:04:24;;;;;;;25.67;21.45;;;;;;;24.27;100.00;152142.41;5072931;28;20235;-63
2022/11/05 11:06:53;;;;;;;24.67;21.58;;;;;;;24.55;100.00;152213.91;5073090;28;20188;-63
2022/11/05 11:09:25;;;;;;;34.08;23.08;;;;;;;24.21;100.00;152125.78;5072087;28;20189;-66
2022/11/05 11:12:15;;;;;;;25.73;22.90;;;;;;;23.34;100.00;151907.41;5072872;28;20185;-63
2022/11/05 11:14:43;;;;;;;30.00;23.90;;;;;;;22.32;100.00;151649.69;5073660;28;20184;-65
2022/11/05 11:17:26;;;;;;;26.80;23.38;;;;;;;21.40;100.00;151418.94;5072857;28;20180;-64
2022/11/05 11:20:22;;;;;;;32.45;24.13;;;;;;;21.07;100.00;151333.50;5073093;28;20629;-67
2022/11/05 11:23:00;;;;;;;28.17;22.17;;;;;;;20.59;100.00;151213.75;5072639;28;20201;-64
2022/11/05 11:25:30;;;;;;;34.20;24.87;;;;;;;20.58;100.00;151209.97;5072587;28;20192;-63
2022/11/05 11:28:04;;;;;;;28.23;24.37;;;;;;;20.59;100.00;151213.75;5073086;28;20185;-64
2022/11/05 11:30:32;;;;;;;32.33;24.13;;;;;;;20.64;100.00;151225.22;5072411;28;20267;-65
2022/11/05 11:33:08;;;;;;;35.33;23.20;;;;;;;20.39;100.00;151162.81;5072380;28;20236;-64
2022/11/05 11:35:46;;;;;;;33.23;24.47;;;;;;;20.13;100.00;151097.84;5072587;28;20204;-66
2022/11/05 11:38:18;;;;;;;31.70;24.07;;;;;;;20.15;100.00;151102.94;5072597;28;20196;-66
2022/11/05 11:40:46;;;;;;;38.50;23.40;;;;;;;20.10;100.00;151090.22;5072406;28;20279;-62
2022/11/05 11:43:23;;;;;;;34.73;22.43;;;;;;;20.30;100.00;151141.19;5072515;28;20188;-63
2022/11/05 11:45:53;;;;;;;33.97;23.87;;;;;;;20.25;100.00;151128.38;5072335;28;20614;-63
2022/11/05 11:48:24;;;;;;;30.30;22.53;;;;;;;20.25;100.00;151128.38;5072368;28;20658;-64
2022/11/05 11:50:54;;;;;;;32.33;23.20;;;;;;;20.49;100.00;151189.59;5072474;28;20188;-63
2022/11/05 11:53:37;;;;;;;26.47;21.97;;;;;;;20.44;100.00;151175.56;5072421;28;20678;-66
2022/11/05 11:56:13;;;;;;;34.73;22.53;;;;;;;20.47;100.00;151183.19;5072286;28;20207;-63
2022/11/05 11:58:43;;;;;;;25.50;20.93;;;;;;;20.67;100.00;151234.13;5072212;28;20188;-63
2022/11/05 12:01:33;;;;;;;29.20;21.50;;;;;;;20.63;100.00;151223.94;5072325;28;20184;-63
2022/11/05 12:04:13;;;;;;;29.60;22.23;;;;;;;20.43;100.00;151174.28;5071950;28;20181;-64
2022/11/05 12:06:50;;;;;;;29.47;22.27;;;;;;;20.21;100.00;151118.22;5072385;28;20234;-67
2022/11/05 12:09:28;;;;;;;28.33;20.80;;;;;;;20.34;100.00;151151.38;5064709;28;20662;-64